Terminal Aerodrome Forecast
Issued by NWS

Home | Current Version | Previous Version | Graphics & Text | Print | Product List | Glossary On
Versions: 1 2 3 4 5 6 7 8 9 10 11 12 13 14 15 16 17 18 19 20 21 22 23 24 25
000
FTUS43 KABR 180100 AAA
TAFMBG
TAF AMD
KMBG 180132Z 1802/1824 01006KT P6SM SKC
     FM180400 05006KT P6SM OVC010
     FM180700 09006KT 5SM BR OVC007
     FM181400 14009KT P6SM OVC010
     FM181700 15017G25KT P6SM SKC=

USA.gov is the U.S. government's official web portal to all federal, state and local government web resources and services.